Aviation Digital Data Service (ADDS)

Output produced by METARs form (1051 UTC 30 March 2017)
found at http://aviationweather.gov/adds/metars/
 
KPOU 300536Z 3006/3106 VRB03KT P6SM SCT250 
     FM301400 36005KT P6SM SCT250 
     FM310400 VRB04KT P6SM VCSH OVC100